createdAt,value
2018-07-19T00:01:15.440Z,99.90
2018-07-19T00:03:43.958Z,99.90
2018-07-19T00:06:12.448Z,99.90
2018-07-19T00:08:40.961Z,99.90
2018-07-19T00:11:09.511Z,99.90
2018-07-19T00:13:38.012Z,99.90
2018-07-19T00:16:06.470Z,99.80
2018-07-19T00:18:34.953Z,99.90
2018-07-19T00:21:03.462Z,99.60
2018-07-19T00:23:31.934Z,99.70
2018-07-19T00:26:00.453Z,99.70
2018-07-19T00:28:28.935Z,99.80
2018-07-19T00:30:57.410Z,99.70
2018-07-19T00:33:25.893Z,99.80
2018-07-19T00:35:54.354Z,99.30
2018-07-19T00:38:22.846Z,98.80
2018-07-19T00:40:51.317Z,98.30
2018-07-19T00:45:47.934Z,98.60
2018-07-19T00:48:17.469Z,99.40
2018-07-19T00:50:45.941Z,99.30
2018-07-19T00:53:14.424Z,99.20
2018-07-19T00:55:42.893Z,99.20
2018-07-19T00:58:11.381Z,99.30
2018-07-19T01:00:39.889Z,99.30
2018-07-19T01:03:08.387Z,98.90
2018-07-19T01:05:36.848Z,98.70
2018-07-19T01:08:05.514Z,99.20
2018-07-19T01:10:34.078Z,99.10
2018-07-19T01:13:02.543Z,99.10
2018-07-19T01:15:31.077Z,98.10
2018-07-19T01:20:28.705Z,99.50
2018-07-19T01:22:57.218Z,99.20
2018-07-19T01:25:25.730Z,99.40
2018-07-19T01:27:54.229Z,99.50
2018-07-19T01:30:22.731Z,99.50
2018-07-19T01:32:51.281Z,99.40
2018-07-19T01:37:47.997Z,99.50
2018-07-19T01:40:16.498Z,99.50
2018-07-19T01:42:45.641Z,99.60
2018-07-19T01:45:14.633Z,99.60
2018-07-19T01:47:43.117Z,99.70
2018-07-19T01:50:12.083Z,99.90
2018-07-19T01:52:40.658Z,99.90
2018-07-19T01:55:09.578Z,99.90
2018-07-19T01:57:38.136Z,99.90
2018-07-19T02:00:07.173Z,99.90
2018-07-19T02:02:35.658Z,99.90
2018-07-19T02:05:04.318Z,99.90
2018-07-19T02:07:32.847Z,99.90
2018-07-19T02:10:01.329Z,99.90
2018-07-19T02:12:29.805Z,99.90
2018-07-19T02:14:58.532Z,99.90
2018-07-19T02:17:26.972Z,99.90
2018-07-19T02:19:55.806Z,99.90
2018-07-19T02:22:25.278Z,99.70
2018-07-19T02:24:53.770Z,99.40
2018-07-19T02:27:22.271Z,99.50
2018-07-19T02:29:51.805Z,99.90
2018-07-19T02:32:20.281Z,99.90
2018-07-19T02:34:48.761Z,99.90
2018-07-19T02:37:17.326Z,99.90
2018-07-19T02:39:46.021Z,99.80
2018-07-19T02:42:14.515Z,99.90
2018-07-19T02:47:11.527Z,99.90
2018-07-19T02:49:40.330Z,99.90
2018-07-19T02:52:08.854Z,99.90
2018-07-19T02:54:37.412Z,99.90
2018-07-19T02:57:05.987Z,99.90
2018-07-19T02:59:34.595Z,99.90
2018-07-19T03:02:03.121Z,99.90
2018-07-19T03:04:31.799Z,99.90
2018-07-19T03:07:00.521Z,99.90
2018-07-19T03:09:28.973Z,99.90
2018-07-19T03:11:57.448Z,99.90
2018-07-19T03:14:25.917Z,99.90
2018-07-19T03:16:54.377Z,99.90
2018-07-19T03:19:22.882Z,99.90
2018-07-19T03:21:51.342Z,99.90
2018-07-19T03:24:19.809Z,99.90
2018-07-19T03:26:48.301Z,99.90
2018-07-19T03:29:16.765Z,99.90
2018-07-19T03:31:45.217Z,99.90
2018-07-19T03:34:13.933Z,99.90
2018-07-19T03:36:42.412Z,99.90
2018-07-19T03:39:11.577Z,99.90
2018-07-19T03:41:40.138Z,99.90
2018-07-19T03:44:08.850Z,99.90
2018-07-19T03:46:37.338Z,99.90
2018-07-19T03:49:05.906Z,99.90
2018-07-19T03:51:34.385Z,99.90
2018-07-19T03:54:02.896Z,99.90
2018-07-19T03:56:31.334Z,99.90
2018-07-19T04:01:27.999Z,99.90
2018-07-19T04:03:56.553Z,99.90
2018-07-19T04:06:25.038Z,99.90
2018-07-19T04:08:53.523Z,99.90
2018-07-19T04:11:22.549Z,99.90
2018-07-19T04:13:51.041Z,99.90
2018-07-19T04:16:19.490Z,99.90
2018-07-19T04:18:47.981Z,99.90
2018-07-19T04:23:44.909Z,99.90
2018-07-19T04:26:14.405Z,99.90
2018-07-19T04:28:42.945Z,99.90
2018-07-19T04:31:11.413Z,99.90
2018-07-19T04:36:08.521Z,99.90
2018-07-19T04:38:37.017Z,99.90
2018-07-19T04:41:05.569Z,99.40
2018-07-19T04:43:34.017Z,98.70
2018-07-19T04:46:02.633Z,97.80
2018-07-19T04:48:31.182Z,97.20
2018-07-19T04:50:59.716Z,96.20
2018-07-19T04:53:28.212Z,96.00
2018-07-19T04:55:56.697Z,95.50
2018-07-19T04:58:25.213Z,95.60
2018-07-19T05:00:53.723Z,95.30
2018-07-19T05:03:22.235Z,95.10
2018-07-19T05:05:51.001Z,95.10
2018-07-19T05:08:19.461Z,95.60
2018-07-19T05:10:48.272Z,95.70
2018-07-19T05:18:13.054Z,95.40
2018-07-19T05:20:41.585Z,95.20
2018-07-19T05:23:10.109Z,94.90
2018-07-19T05:25:38.550Z,94.90
2018-07-19T05:28:07.029Z,95.10
2018-07-19T05:30:35.514Z,95.00
2018-07-19T05:33:04.008Z,94.60
2018-07-19T05:35:32.526Z,94.00
2018-07-19T05:38:00.972Z,93.60
2018-07-19T05:40:29.995Z,92.70
2018-07-19T05:42:58.404Z,92.60
2018-07-19T05:45:26.894Z,91.70
2018-07-19T05:47:55.353Z,92.00
2018-07-19T05:50:23.909Z,91.90
2018-07-19T05:52:52.410Z,91.80
2018-07-19T05:55:20.938Z,91.50
2018-07-19T05:57:49.418Z,91.30
2018-07-19T06:00:17.916Z,90.70
2018-07-19T06:02:46.450Z,90.40
2018-07-19T06:05:15.003Z,90.50
2018-07-19T06:07:43.617Z,90.70
2018-07-19T06:10:12.161Z,90.10
2018-07-19T06:12:40.645Z,90.60
2018-07-19T06:15:09.163Z,90.10
2018-07-19T06:17:37.637Z,90.00
2018-07-19T06:20:07.258Z,90.10
2018-07-19T06:22:36.262Z,88.30
2018-07-19T06:25:04.898Z,88.70
2018-07-19T06:27:33.677Z,89.50
2018-07-19T06:30:02.779Z,87.60
2018-07-19T06:32:32.226Z,89.70
2018-07-19T06:35:00.694Z,90.60
2018-07-19T06:37:29.211Z,91.60
2018-07-19T06:39:57.684Z,91.90
2018-07-19T06:42:26.166Z,92.80
2018-07-19T06:44:54.702Z,92.80
2018-07-19T06:47:23.195Z,93.90
2018-07-19T06:49:51.888Z,94.90
2018-07-19T06:52:20.353Z,94.50
2018-07-19T06:54:48.825Z,95.10
2018-07-19T06:57:17.514Z,95.30
2018-07-19T06:59:46.238Z,94.90
2018-07-19T07:02:14.713Z,95.50
2018-07-19T07:04:43.213Z,95.70
2018-07-19T07:07:11.706Z,95.80
2018-07-19T07:09:40.180Z,96.00
2018-07-19T07:12:08.652Z,95.60
2018-07-19T07:14:37.196Z,95.80
2018-07-19T07:17:05.795Z,96.40
2018-07-19T07:19:34.276Z,96.30
2018-07-19T07:22:02.786Z,96.20
2018-07-19T07:24:31.258Z,96.00
2018-07-19T07:26:59.762Z,96.50
2018-07-19T07:29:28.253Z,96.70
2018-07-19T07:31:56.726Z,96.80
2018-07-19T07:34:25.277Z,96.90
2018-07-19T07:36:53.786Z,96.70
2018-07-19T07:39:22.309Z,96.60
2018-07-19T07:44:19.052Z,97.60
2018-07-19T07:46:47.525Z,97.90
2018-07-19T07:49:15.992Z,98.00
2018-07-19T07:51:44.570Z,98.10
2018-07-19T07:54:13.071Z,98.50
2018-07-19T07:56:41.539Z,97.80
2018-07-19T07:59:10.003Z,98.10
2018-07-19T08:01:38.489Z,97.20
2018-07-19T08:04:07.053Z,97.90
2018-07-19T08:06:35.906Z,97.50
2018-07-19T08:09:06.779Z,97.70
2018-07-19T08:11:35.305Z,97.80
2018-07-19T08:14:03.869Z,98.20
2018-07-19T08:16:32.391Z,98.40
2018-07-19T08:19:00.849Z,97.10
2018-07-19T08:21:29.350Z,97.90
2018-07-19T08:23:58.279Z,97.10
2018-07-19T08:26:26.785Z,97.70
2018-07-19T08:28:55.264Z,98.10
2018-07-19T08:31:23.755Z,98.40
2018-07-19T08:33:52.241Z,97.90
2018-07-19T08:36:20.755Z,97.20
2018-07-19T08:38:49.238Z,97.20
2018-07-19T08:41:17.762Z,97.70
2018-07-19T08:43:46.264Z,97.10
2018-07-19T08:46:14.726Z,97.40
2018-07-19T08:48:43.308Z,96.90
2018-07-19T08:51:11.798Z,96.50
2018-07-19T08:53:40.318Z,96.50
2018-07-19T08:56:08.843Z,96.40
2018-07-19T08:58:37.560Z,96.50
2018-07-19T09:01:06.167Z,96.60
2018-07-19T09:03:34.697Z,96.60
2018-07-19T09:06:03.226Z,96.70
2018-07-19T09:08:31.713Z,96.50
2018-07-19T09:11:00.212Z,96.20
2018-07-19T09:13:28.709Z,95.60
2018-07-19T09:15:57.239Z,95.50
2018-07-19T09:18:25.759Z,95.80
2018-07-19T09:20:54.483Z,95.00
2018-07-19T09:25:51.143Z,94.80
2018-07-19T09:28:19.622Z,95.40
2018-07-19T09:30:48.104Z,94.20
2018-07-19T09:33:16.612Z,93.90
2018-07-19T09:35:45.122Z,93.30
2018-07-19T09:38:13.633Z,92.50
2018-07-19T09:40:42.117Z,93.50
2018-07-19T09:43:10.641Z,93.80
2018-07-19T09:45:39.139Z,93.30
2018-07-19T09:48:07.590Z,93.20
2018-07-19T09:50:36.081Z,91.90
2018-07-19T09:53:04.565Z,92.20
2018-07-19T09:55:33.085Z,91.60
2018-07-19T09:58:01.551Z,92.10
2018-07-19T10:00:35.336Z,92.30
2018-07-19T10:03:03.790Z,92.40
2018-07-19T10:05:32.347Z,93.00
2018-07-19T10:08:00.847Z,92.50
2018-07-19T10:10:29.354Z,92.50
2018-07-19T10:12:57.818Z,92.90
2018-07-19T10:15:26.556Z,92.70
2018-07-19T10:17:55.575Z,92.10
2018-07-19T10:20:24.146Z,92.10
2018-07-19T10:22:53.380Z,92.00
2018-07-19T10:25:21.923Z,91.80
2018-07-19T10:27:50.564Z,91.60
2018-07-19T10:30:19.098Z,92.20
2018-07-19T10:32:47.628Z,92.70
2018-07-19T10:35:16.164Z,92.20
2018-07-19T10:37:44.657Z,92.00
2018-07-19T10:40:13.754Z,92.60
2018-07-19T10:42:42.358Z,91.60
2018-07-19T10:45:10.947Z,91.50
2018-07-19T10:47:39.430Z,92.00
2018-07-19T10:50:07.994Z,91.90
2018-07-19T10:52:36.451Z,92.30
2018-07-19T10:55:05.038Z,90.90
2018-07-19T10:57:33.554Z,91.20
2018-07-19T11:00:02.064Z,91.80
2018-07-19T11:04:59.535Z,91.80
2018-07-19T11:07:28.073Z,91.20
2018-07-19T11:09:56.596Z,91.70
2018-07-19T11:12:25.086Z,91.40
2018-07-19T11:14:53.581Z,91.20
2018-07-19T11:17:22.070Z,91.60
2018-07-19T11:22:18.650Z,91.20
2018-07-19T11:24:47.204Z,91.10
2018-07-19T11:27:15.671Z,91.00
2018-07-19T11:29:44.390Z,90.90
2018-07-19T11:32:12.897Z,90.40
2018-07-19T11:34:41.392Z,91.20
2018-07-19T11:37:09.861Z,91.50
2018-07-19T11:39:38.347Z,90.60
2018-07-19T11:42:06.909Z,90.90
2018-07-19T11:44:35.384Z,90.90
2018-07-19T11:47:03.902Z,91.10
2018-07-19T11:49:32.388Z,91.30
2018-07-19T11:52:00.868Z,91.30
2018-07-19T11:54:29.654Z,90.20
2018-07-19T11:56:58.161Z,90.50
2018-07-19T11:59:26.710Z,90.70
2018-07-19T12:01:55.214Z,90.70
2018-07-19T12:04:23.653Z,90.90
2018-07-19T12:06:52.127Z,90.30
2018-07-19T12:09:20.574Z,90.50
2018-07-19T12:11:49.053Z,90.60
2018-07-19T12:14:17.530Z,90.20
2018-07-19T12:16:45.991Z,90.70
2018-07-19T12:19:14.467Z,90.00
2018-07-19T12:21:43.067Z,90.10
2018-07-19T12:24:12.257Z,90.00
2018-07-19T12:26:41.100Z,89.60
2018-07-19T12:31:37.754Z,90.40
2018-07-19T12:34:06.198Z,89.60
2018-07-19T12:36:34.733Z,88.80
2018-07-19T12:39:03.445Z,89.10
2018-07-19T12:41:32.180Z,88.40
2018-07-19T12:44:00.628Z,89.60
2018-07-19T12:46:29.118Z,89.30
2018-07-19T12:48:57.724Z,87.90
2018-07-19T12:51:26.130Z,88.20
2018-07-19T12:56:22.993Z,89.10
2018-07-19T12:58:52.526Z,88.50
2018-07-19T13:01:20.978Z,89.20
2018-07-19T13:06:17.621Z,88.00
2018-07-19T13:08:46.382Z,88.00
2018-07-19T13:11:15.043Z,87.40
2018-07-19T13:13:43.769Z,88.10
2018-07-19T13:16:12.653Z,88.60
2018-07-19T13:18:41.140Z,87.80
2018-07-19T13:21:09.614Z,87.60
2018-07-19T13:23:38.371Z,87.80
2018-07-19T13:26:06.880Z,87.00
2018-07-19T13:28:35.619Z,88.10
2018-07-19T13:31:04.123Z,88.20
2018-07-19T13:33:32.646Z,87.80
2018-07-19T13:36:01.462Z,88.00
2018-07-19T13:40:58.349Z,87.30
2018-07-19T13:43:26.818Z,87.80
2018-07-19T13:45:55.680Z,87.00
2018-07-19T13:48:24.234Z,85.50
2018-07-19T13:50:52.723Z,86.80
2018-07-19T13:53:34.578Z,86.10
2018-07-19T13:57:04.059Z,87.50
2018-07-19T13:59:32.611Z,86.20
2018-07-19T14:02:01.079Z,86.20
2018-07-19T14:04:29.554Z,86.40
2018-07-19T14:06:58.080Z,86.00
2018-07-19T14:09:26.567Z,85.40
2018-07-19T14:11:55.051Z,86.40
2018-07-19T14:14:23.514Z,86.40
2018-07-19T14:16:51.964Z,86.50
2018-07-19T14:19:20.466Z,85.60
2018-07-19T14:21:49.030Z,87.00
2018-07-19T14:24:17.511Z,84.90
2018-07-19T14:26:46.004Z,85.20
2018-07-19T14:29:14.484Z,85.90
2018-07-19T14:31:42.977Z,85.70
2018-07-19T14:34:11.470Z,85.30
2018-07-19T14:36:40.794Z,84.10
2018-07-19T14:39:11.241Z,85.20
2018-07-19T14:41:39.753Z,84.90
2018-07-19T14:44:08.686Z,85.10
2018-07-19T14:46:37.170Z,85.90
2018-07-19T14:49:05.702Z,87.50
2018-07-19T14:51:34.179Z,86.80
2018-07-19T14:54:02.673Z,86.00
2018-07-19T14:56:31.114Z,85.50
2018-07-19T14:58:59.598Z,85.40
2018-07-19T15:01:28.117Z,85.10
2018-07-19T15:03:56.569Z,84.40
2018-07-19T15:06:25.057Z,84.50
2018-07-19T15:08:53.541Z,86.80
2018-07-19T15:13:50.142Z,85.00
2018-07-19T15:16:18.781Z,85.00
2018-07-19T15:18:47.264Z,84.40
2018-07-19T15:23:44.097Z,83.70
2018-07-19T15:26:12.602Z,84.20
2018-07-19T15:28:41.108Z,83.40
2018-07-19T15:31:09.598Z,83.80
2018-07-19T15:33:42.538Z,83.40
2018-07-19T15:36:11.142Z,83.40
2018-07-19T15:38:39.645Z,84.00
2018-07-19T15:41:08.132Z,83.80
2018-07-19T15:43:36.622Z,84.40
2018-07-19T15:46:05.134Z,83.60
2018-07-19T15:48:33.588Z,81.90
2018-07-19T15:51:02.086Z,83.80
2018-07-19T15:53:30.585Z,83.40
2018-07-19T15:55:59.274Z,83.80
2018-07-19T15:58:27.774Z,84.50
2018-07-19T16:00:56.250Z,83.40
2018-07-19T16:03:24.715Z,84.50
2018-07-19T16:05:53.447Z,84.90
2018-07-19T16:08:21.891Z,83.80
2018-07-19T16:10:50.339Z,84.40
2018-07-19T16:13:18.815Z,84.70
2018-07-19T16:15:47.274Z,84.60
2018-07-19T16:20:43.971Z,85.40
2018-07-19T16:23:12.380Z,84.80
2018-07-19T16:25:40.874Z,85.80
2018-07-19T16:28:09.322Z,84.80
2018-07-19T16:30:37.803Z,84.80
2018-07-19T16:33:06.383Z,84.90
2018-07-19T16:35:34.884Z,84.60
2018-07-19T16:38:03.419Z,85.40
2018-07-19T16:40:31.892Z,85.60
2018-07-19T16:45:28.678Z,83.90
2018-07-19T16:47:57.154Z,85.00
2018-07-19T16:50:25.644Z,86.00
2018-07-19T16:52:54.120Z,85.60
2018-07-19T16:55:22.617Z,84.80
2018-07-19T16:57:51.057Z,85.90
2018-07-19T17:00:19.567Z,86.20
2018-07-19T17:02:48.044Z,86.20
2018-07-19T17:05:16.544Z,85.70
2018-07-19T17:07:45.006Z,85.60
2018-07-19T17:10:13.496Z,84.70
2018-07-19T17:12:41.974Z,86.40
2018-07-19T17:15:10.444Z,85.60
2018-07-19T17:17:38.901Z,85.50
2018-07-19T17:20:07.365Z,84.80
2018-07-19T17:22:36.074Z,86.00
2018-07-19T17:25:04.578Z,85.00
2018-07-19T17:30:01.889Z,85.70
2018-07-19T17:32:30.508Z,85.00
2018-07-19T17:37:27.217Z,85.70
2018-07-19T17:39:56.692Z,85.50
2018-07-19T17:42:25.157Z,85.30
2018-07-19T17:44:53.604Z,85.60
2018-07-19T17:47:24.580Z,85.60
2018-07-19T17:49:53.835Z,86.30
2018-07-19T17:52:22.316Z,85.60
2018-07-19T17:54:50.797Z,85.70
2018-07-19T17:57:19.283Z,86.10
2018-07-19T17:59:47.742Z,86.80
2018-07-19T18:02:16.204Z,87.40
2018-07-19T18:07:12.822Z,88.40
2018-07-19T18:09:41.294Z,88.30
2018-07-19T18:12:10.207Z,88.10
2018-07-19T18:14:38.702Z,87.90
2018-07-19T18:17:07.417Z,88.90
2018-07-19T18:19:35.902Z,88.50
2018-07-19T18:22:04.487Z,89.80
2018-07-19T18:24:32.914Z,90.00
2018-07-19T18:27:01.402Z,90.10
2018-07-19T18:29:29.870Z,90.10
2018-07-19T18:31:58.361Z,90.00
2018-07-19T18:34:26.818Z,90.30
2018-07-19T18:36:55.302Z,90.50
2018-07-19T18:39:23.783Z,90.40
2018-07-19T18:41:52.242Z,90.50
2018-07-19T18:44:20.720Z,90.90
2018-07-19T18:46:49.185Z,90.80
2018-07-19T18:51:45.999Z,90.90
2018-07-19T18:54:14.505Z,90.90
2018-07-19T18:56:43.029Z,91.40
2018-07-19T18:59:15.215Z,90.70
2018-07-19T19:01:43.699Z,90.90
2018-07-19T19:04:13.702Z,90.90
2018-07-19T19:06:42.490Z,91.50
2018-07-19T19:09:11.997Z,91.60
2018-07-19T19:11:40.618Z,91.70
2018-07-19T19:14:09.090Z,91.30
2018-07-19T19:16:37.785Z,91.20
2018-07-19T19:19:06.287Z,91.30
2018-07-19T19:21:34.809Z,91.40
2018-07-19T19:24:03.197Z,91.20
2018-07-19T19:26:31.677Z,91.60
2018-07-19T19:29:00.147Z,91.30
2018-07-19T19:31:28.626Z,91.70
2018-07-19T19:33:57.087Z,91.60
2018-07-19T19:36:25.565Z,91.60
2018-07-19T19:38:53.997Z,91.60
2018-07-19T19:41:29.864Z,91.90
2018-07-19T19:46:26.549Z,92.90
2018-07-19T19:48:55.020Z,92.40
2018-07-19T19:51:23.477Z,92.50
2018-07-19T19:53:51.949Z,92.20
2018-07-19T19:56:20.427Z,91.60
2018-07-19T19:58:48.896Z,91.60
2018-07-19T20:01:17.469Z,91.40
2018-07-19T20:03:45.974Z,91.70
2018-07-19T20:06:14.465Z,91.40
2018-07-19T20:08:42.976Z,91.60
2018-07-19T20:11:11.426Z,91.80
2018-07-19T20:13:39.886Z,91.90
2018-07-19T20:18:36.814Z,91.20
2018-07-19T20:21:05.471Z,91.20
2018-07-19T20:23:34.259Z,91.30
2018-07-19T20:26:02.745Z,91.50
2018-07-19T20:28:31.254Z,91.30
2018-07-19T20:30:59.782Z,91.80
2018-07-19T20:35:56.370Z,91.50
2018-07-19T20:38:25.984Z,91.60
2018-07-19T20:40:54.454Z,91.30
2018-07-19T20:43:22.952Z,91.00
2018-07-19T20:45:52.222Z,91.20
2018-07-19T20:48:21.074Z,91.20
2018-07-19T20:50:49.520Z,91.00
2018-07-19T20:53:18.414Z,91.10
2018-07-19T20:55:46.902Z,91.00
2018-07-19T20:58:15.382Z,91.00
2018-07-19T21:00:44.671Z,91.00
2018-07-19T21:03:13.185Z,91.00
2018-07-19T21:05:41.674Z,91.40
2018-07-19T21:08:10.134Z,91.40
2018-07-19T21:10:38.643Z,91.50
2018-07-19T21:13:08.430Z,91.80
2018-07-19T21:15:36.890Z,91.80
2018-07-19T21:18:05.399Z,92.00
2018-07-19T21:20:33.884Z,92.10
2018-07-19T21:23:02.350Z,92.30
2018-07-19T21:25:30.806Z,92.30
2018-07-19T21:27:59.523Z,92.50
2018-07-19T21:30:27.990Z,92.60
2018-07-19T21:32:56.422Z,92.70
2018-07-19T21:35:25.124Z,92.70
2018-07-19T21:37:53.819Z,92.80
2018-07-19T21:40:22.284Z,92.90
2018-07-19T21:42:50.766Z,93.40
2018-07-19T21:45:19.214Z,93.80
2018-07-19T21:47:47.738Z,93.70
2018-07-19T21:52:44.413Z,94.10
2018-07-19T21:55:13.005Z,93.70
2018-07-19T21:57:41.477Z,93.90
2018-07-19T22:00:10.019Z,93.90
2018-07-19T22:02:38.536Z,94.00
2018-07-19T22:07:35.159Z,94.50
2018-07-19T22:10:03.839Z,95.10
2018-07-19T22:12:32.318Z,95.50
2018-07-19T22:15:00.855Z,95.50
2018-07-19T22:17:29.514Z,95.70
2018-07-19T22:19:58.009Z,95.70
2018-07-19T22:24:54.851Z,96.00
2018-07-19T22:27:23.552Z,96.40
2018-07-19T22:32:20.199Z,96.50
2018-07-19T22:34:48.705Z,96.70
2018-07-19T22:37:17.169Z,96.40
2018-07-19T22:39:45.623Z,96.60
2018-07-19T22:42:14.111Z,96.70
2018-07-19T22:44:42.598Z,96.80
2018-07-19T22:47:11.157Z,97.40
2018-07-19T22:49:39.607Z,97.10
2018-07-19T22:52:08.155Z,97.30
2018-07-19T22:54:36.675Z,97.40
2018-07-19T22:57:05.199Z,97.30
2018-07-19T22:59:33.722Z,97.60
2018-07-19T23:02:02.258Z,97.80
2018-07-19T23:04:30.686Z,97.70
2018-07-19T23:09:27.292Z,97.30
2018-07-19T23:11:55.813Z,97.80
2018-07-19T23:14:24.278Z,98.20
2018-07-19T23:16:52.766Z,98.20
2018-07-19T23:19:21.258Z,97.80
2018-07-19T23:21:49.723Z,97.50
2018-07-19T23:24:18.417Z,97.90
2018-07-19T23:26:46.917Z,97.80
2018-07-19T23:29:15.622Z,98.00
2018-07-19T23:31:44.254Z,97.70
2018-07-19T23:34:12.755Z,97.80
2018-07-19T23:36:46.824Z,98.30
2018-07-19T23:41:22.666Z,98.40
2018-07-19T23:43:54.654Z,98.10
2018-07-19T23:46:26.134Z,98.20
2018-07-19T23:48:56.016Z,98.30
2018-07-19T23:51:24.477Z,98.50
2018-07-19T23:56:21.109Z,98.50
2018-07-19T23:58:49.577Z,98.60
